Time;durP1;ratioP1;P1;durP2;ratioP2;P2;SDS_P1;SDS_P2;PMS_P1;PMS_P2;Temp;Humidity;BMP_temperature;BMP_pressure;BME280_temperature;BME280_humidity;BME280_pressure;Samples;Min_cycle;Max_cycle;Signal;HPM_P1;HPM_P2
2023/07/19 00:00:08;;;;;;;7.68;5.28;;;16.10;89.50;;;;;;5066835;28;20097;-44
2023/07/19 00:02:34;;;;;;;7.90;5.80;;;16.10;89.60;;;;;;5073585;28;20020;-44
2023/07/19 00:05:03;;;;;;;9.18;6.22;;;16.20;89.80;;;;;;5073144;28;20376;-44
2023/07/19 00:07:30;;;;;;;6.30;5.30;;;16.20;90.00;;;;;;5056871;28;20342;-44
2023/07/19 00:09:56;;;;;;;8.38;5.82;;;16.20;90.30;;;;;;5055811;28;20506;-44
2023/07/19 00:12:23;;;;;;;9.13;5.32;;;16.20;90.30;;;;;;5057589;28;20050;-43
2023/07/19 00:14:50;;;;;;;8.82;4.97;;;16.20;90.40;;;;;;5055789;28;20069;-43
2023/07/19 00:17:17;;;;;;;6.32;4.80;;;16.30;90.60;;;;;;5055837;28;20036;-43
2023/07/19 00:19:43;;;;;;;7.10;5.72;;;16.20;90.60;;;;;;5066323;28;20035;-44
2023/07/19 00:22:09;;;;;;;6.78;5.82;;;16.30;90.60;;;;;;5073058;28;20040;-45
2023/07/19 00:24:36;;;;;;;8.77;6.07;;;16.20;90.60;;;;;;5074162;28;20029;-44
2023/07/19 00:27:02;;;;;;;6.97;5.93;;;16.20;90.50;;;;;;5055752;28;20126;-43
2023/07/19 00:29:28;;;;;;;10.50;6.60;;;16.20;90.60;;;;;;5072395;28;20032;-44
2023/07/19 00:31:54;;;;;;;9.20;6.55;;;16.20;90.60;;;;;;5055089;28;20470;-45
2023/07/19 00:34:21;;;;;;;9.48;6.63;;;16.20;90.60;;;;;;5073704;28;20058;-44
2023/07/19 00:36:48;;;;;;;8.40;7.20;;;16.20;90.70;;;;;;5074020;28;20100;-44
2023/07/19 00:39:15;;;;;;;10.15;7.72;;;16.20;90.60;;;;;;5054993;28;20035;-43
2023/07/19 00:41:41;;;;;;;9.20;6.35;;;16.10;90.60;;;;;;5056142;28;20036;-44
2023/07/19 00:44:08;;;;;;;6.90;6.20;;;16.10;90.60;;;;;;5053671;28;20037;-44
2023/07/19 00:46:35;;;;;;;7.28;6.10;;;16.10;90.80;;;;;;5065164;28;20131;-45
2023/07/19 00:49:02;;;;;;;6.82;5.43;;;16.10;90.80;;;;;;5071631;28;20025;-46
2023/07/19 00:51:29;;;;;;;7.55;6.30;;;16.10;90.80;;;;;;5073561;28;20029;-43
2023/07/19 00:53:56;;;;;;;10.38;8.75;;;16.10;90.70;;;;;;5056039;28;20408;-44
2023/07/19 00:56:24;;;;;;;9.95;8.30;;;16.10;90.60;;;;;;5053847;28;20048;-44
2023/07/19 00:58:54;;;;;;;8.55;6.75;;;16.10;90.60;;;;;;5062459;28;20021;-43
2023/07/19 01:01:24;;;;;;;8.45;7.57;;;16.10;90.60;;;;;;5071544;28;20112;-44
2023/07/19 01:03:51;;;;;;;7.15;6.45;;;16.00;90.60;;;;;;5073244;28;20074;-44
2023/07/19 01:06:18;;;;;;;7.55;6.72;;;16.00;90.70;;;;;;5066285;28;20033;-43
2023/07/19 01:08:49;;;;;;;8.27;6.45;;;16.00;90.70;;;;;;5064991;28;20035;-45
2023/07/19 01:11:16;;;;;;;9.00;6.78;;;16.00;90.80;;;;;;5073411;28;20115;-44
2023/07/19 01:13:53;;;;;;;7.85;6.50;;;16.00;90.80;;;;;;5069790;28;20102;-44
2023/07/19 01:16:20;;;;;;;8.13;7.30;;;16.00;90.70;;;;;;5045162;28;20032;-45
2023/07/19 01:18:50;;;;;;;8.40;6.68;;;16.00;90.70;;;;;;5072537;28;20029;-44
2023/07/19 01:21:17;;;;;;;10.50;6.40;;;16.00;90.80;;;;;;5073090;28;20052;-43
2023/07/19 01:23:43;;;;;;;7.55;6.45;;;16.00;90.70;;;;;;5051090;28;20037;-46
2023/07/19 01:26:11;;;;;;;9.10;5.43;;;15.90;90.80;;;;;;5052045;28;20062;-46
2023/07/19 01:28:39;;;;;;;9.20;6.97;;;16.00;90.80;;;;;;5058004;28;20033;-44
2023/07/19 01:31:06;;;;;;;7.18;6.20;;;15.90;90.80;;;;;;5060693;28;20032;-44
2023/07/19 01:33:32;;;;;;;6.97;5.65;;;15.90;90.90;;;;;;5055289;28;20044;-44
2023/07/19 01:35:59;;;;;;;8.40;5.60;;;15.90;91.00;;;;;;5059224;28;20056;-46
2023/07/19 01:38:25;;;;;;;7.63;4.97;;;15.90;91.10;;;;;;5072182;28;20476;-44
2023/07/19 01:40:52;;;;;;;8.98;6.03;;;15.90;91.20;;;;;;5055100;28;20589;-44
2023/07/19 01:43:19;;;;;;;7.20;4.97;;;15.90;91.30;;;;;;5057824;28;20039;-44
2023/07/19 01:45:46;;;;;;;8.05;5.10;;;15.90;91.30;;;;;;5067684;28;20055;-43
2023/07/19 01:48:13;;;;;;;6.18;3.72;;;15.90;91.30;;;;;;5054163;28;20028;-45
2023/07/19 01:50:40;;;;;;;4.97;3.80;;;15.90;91.30;;;;;;5072929;28;20411;-44
2023/07/19 01:53:07;;;;;;;6.78;4.55;;;15.90;91.30;;;;;;5072671;28;20126;-44
2023/07/19 01:55:33;;;;;;;5.03;4.03;;;15.90;91.20;;;;;;5050070;28;20044;-44
2023/07/19 01:58:02;;;;;;;6.10;3.75;;;15.90;91.20;;;;;;5056683;28;20025;-44
2023/07/19 02:00:28;;;;;;;8.20;5.70;;;15.90;91.20;;;;;;5069765;28;20107;-44
2023/07/19 02:02:54;;;;;;;7.60;6.50;;;15.90;91.40;;;;;;5062116;28;20132;-43
2023/07/19 02:05:22;;;;;;;6.15;5.45;;;15.90;91.60;;;;;;5072838;28;20031;-44
2023/07/19 02:07:49;;;;;;;7.97;6.15;;;15.90;91.50;;;;;;5054982;28;20020;-44
2023/07/19 02:10:17;;;;;;;14.40;7.28;;;15.90;91.50;;;;;;5072002;28;20450;-44
2023/07/19 02:12:43;;;;;;;8.63;6.43;;;15.90;91.30;;;;;;5056176;28;20056;-44
2023/07/19 02:15:09;;;;;;;7.28;5.72;;;15.90;91.30;;;;;;5071780;28;20067;-44
2023/07/19 02:17:36;;;;;;;11.30;5.88;;;15.90;91.30;;;;;;5069970;28;20561;-47
2023/07/19 02:20:03;;;;;;;9.55;4.88;;;15.90;91.20;;;;;;5054399;28;20056;-46
2023/07/19 02:22:30;;;;;;;7.50;5.05;;;15.90;91.20;;;;;;5075800;28;20024;-46
2023/07/19 02:24:56;;;;;;;8.07;5.28;;;15.90;91.20;;;;;;5054472;28;20048;-46
2023/07/19 02:27:23;;;;;;;9.00;6.03;;;15.90;91.20;;;;;;5056497;28;20187;-48
2023/07/19 02:29:50;;;;;;;11.48;6.68;;;15.90;91.30;;;;;;5075756;28;20055;-49
2023/07/19 02:32:16;;;;;;;12.38;6.55;;;15.80;91.50;;;;;;5054179;28;20120;-46
2023/07/19 02:34:43;;;;;;;11.40;5.60;;;15.80;91.30;;;;;;5071297;28;20029;-48
2023/07/19 02:37:10;;;;;;;9.45;5.15;;;15.80;91.30;;;;;;5058233;28;20450;-46
2023/07/19 02:39:39;;;;;;;10.90;5.63;;;15.80;91.10;;;;;;5076089;28;20395;-45
2023/07/19 02:42:06;;;;;;;9.57;5.13;;;15.80;91.10;;;;;;5068736;28;20378;-45
2023/07/19 02:44:33;;;;;;;11.45;6.13;;;15.70;91.10;;;;;;5070496;28;20103;-47
2023/07/19 02:47:02;;;;;;;10.63;6.05;;;15.80;91.20;;;;;;5074988;28;20029;-45
2023/07/19 02:49:29;;;;;;;11.70;6.13;;;15.80;91.30;;;;;;5076305;28;20372;-47
2023/07/19 02:51:55;;;;;;;6.95;4.57;;;15.70;91.40;;;;;;5058028;28;20043;-46
2023/07/19 02:54:22;;;;;;;9.45;4.78;;;15.80;91.40;;;;;;5073917;28;20025;-47
2023/07/19 02:56:49;;;;;;;14.43;5.05;;;15.70;91.50;;;;;;5072476;28;20182;-48
2023/07/19 02:59:17;;;;;;;10.13;6.25;;;15.80;91.50;;;;;;5072198;28;20085;-47
2023/07/19 03:01:45;;;;;;;12.73;5.83;;;15.70;91.60;;;;;;5068319;28;20090;-48
2023/07/19 03:04:12;;;;;;;12.38;6.72;;;15.70;91.70;;;;;;5075691;28;20028;-48
2023/07/19 03:06:39;;;;;;;11.15;6.07;;;15.70;91.70;;;;;;5064340;28;20040;-48
2023/07/19 03:09:06;;;;;;;11.38;6.10;;;15.70;91.70;;;;;;5055842;28;20063;-47
2023/07/19 03:11:32;;;;;;;15.70;6.85;;;15.70;91.80;;;;;;5064480;28;20757;-48
2023/07/19 03:13:59;;;;;;;12.45;6.35;;;15.60;91.80;;;;;;5075387;28;20116;-48
2023/07/19 03:16:25;;;;;;;10.65;6.43;;;15.70;91.90;;;;;;5074019;28;20024;-46
2023/07/19 03:18:52;;;;;;;8.75;5.68;;;15.60;92.00;;;;;;5071139;28;20036;-49
2023/07/19 03:21:20;;;;;;;9.77;5.88;;;15.60;92.00;;;;;;5062484;28;20485;-47
2023/07/19 03:23:47;;;;;;;7.63;5.53;;;15.60;92.10;;;;;;5054708;28;20028;-46
2023/07/19 03:26:13;;;;;;;11.25;6.18;;;15.60;92.20;;;;;;5054735;28;20021;-45
2023/07/19 03:28:40;;;;;;;8.32;6.15;;;15.60;92.20;;;;;;5051820;28;20075;-46
2023/07/19 03:31:11;;;;;;;13.20;5.53;;;15.60;92.30;;;;;;5051026;28;20049;-46
2023/07/19 03:33:39;;;;;;;10.60;6.32;;;15.60;92.40;;;;;;5053995;28;20028;-47
2023/07/19 03:36:06;;;;;;;11.75;6.00;;;15.60;92.40;;;;;;5051374;28;20025;-47
2023/07/19 03:38:32;;;;;;;7.93;5.65;;;15.60;92.50;;;;;;5047241;28;20029;-46
2023/07/19 03:41:11;;;;;;;8.48;5.30;;;15.60;92.50;;;;;;5053399;28;20032;-47
2023/07/19 03:43:38;;;;;;;8.48;5.32;;;15.60;92.60;;;;;;5045096;28;20461;-48
2023/07/19 03:46:06;;;;;;;9.15;5.40;;;15.60;92.60;;;;;;5053954;28;20102;-47
2023/07/19 03:48:31;;;;;;;9.88;6.20;;;15.50;92.60;;;;;;5052938;28;20049;-47
2023/07/19 03:51:02;;;;;;;7.93;5.57;;;15.50;92.70;;;;;;5049808;28;20410;-48
2023/07/19 03:53:31;;;;;;;8.05;5.30;;;15.60;92.80;;;;;;5053194;28;20052;-47
2023/07/19 03:55:59;;;;;;;6.57;5.00;;;15.60;92.80;;;;;;5052177;28;20096;-46
2023/07/19 03:58:27;;;;;;;7.50;5.93;;;15.60;92.80;;;;;;5034244;28;20052;-48
2023/07/19 04:00:54;;;;;;;6.07;5.35;;;15.50;92.90;;;;;;5035175;28;20059;-48
2023/07/19 04:03:24;;;;;;;5.97;5.25;;;15.50;93.00;;;;;;5053024;28;20512;-47
2023/07/19 04:05:54;;;;;;;8.05;5.55;;;15.50;93.00;;;;;;5047094;28;20032;-48
2023/07/19 04:08:21;;;;;;;6.50;5.30;;;15.50;93.00;;;;;;5033899;28;20033;-48
2023/07/19 04:10:48;;;;;;;8.40;4.97;;;15.50;93.10;;;;;;5043295;28;20060;-47
2023/07/19 04:13:15;;;;;;;6.20;4.55;;;15.60;93.00;;;;;;5047243;28;20112;-47
2023/07/19 04:15:44;;;;;;;6.43;5.00;;;15.50;93.00;;;;;;5038742;28;20100;-49
2023/07/19 04:18:11;;;;;;;8.27;4.30;;;15.50;93.10;;;;;;5054248;28;20040;-47
2023/07/19 04:20:38;;;;;;;6.55;4.30;;;15.50;93.00;;;;;;5053175;28;20433;-46
2023/07/19 04:23:04;;;;;;;6.40;4.65;;;15.50;93.10;;;;;;5055731;28;20082;-47
2023/07/19 04:25:34;;;;;;;8.07;4.75;;;15.50;93.10;;;;;;5072421;28;20090;-46
2023/07/19 04:28:03;;;;;;;6.30;4.63;;;15.50;93.20;;;;;;5056050;28;20119;-47
2023/07/19 04:30:29;;;;;;;6.47;4.00;;;15.50;93.20;;;;;;5071231;28;20549;-46
2023/07/19 04:32:56;;;;;;;4.57;3.03;;;15.50;93.20;;;;;;5068554;28;20043;-47
2023/07/19 04:35:23;;;;;;;6.07;3.58;;;15.50;93.10;;;;;;5055905;28;20071;-47
2023/07/19 04:37:50;;;;;;;5.43;4.65;;;15.50;93.10;;;;;;5070613;28;20394;-48
2023/07/19 04:40:18;;;;;;;6.65;4.38;;;15.40;93.10;;;;;;5059522;28;20033;-47
2023/07/19 04:42:45;;;;;;;5.90;4.03;;;15.40;93.10;;;;;;5067940;28;20040;-48
2023/07/19 04:45:13;;;;;;;5.78;4.22;;;15.50;93.20;;;;;;5070849;28;20060;-50
2023/07/19 04:47:40;;;;;;;9.15;4.03;;;15.40;93.20;;;;;;5072855;28;20043;-47
2023/07/19 04:50:08;;;;;;;5.00;3.60;;;15.40;93.20;;;;;;5060956;28;20037;-49
2023/07/19 04:52:36;;;;;;;5.38;3.42;;;15.40;93.20;;;;;;5072955;28;20485;-48
2023/07/19 04:55:03;;;;;;;7.47;3.67;;;15.40;93.10;;;;;;5050789;28;20410;-49
2023/07/19 04:57:32;;;;;;;6.05;3.88;;;15.40;93.10;;;;;;5073408;28;20021;-47
2023/07/19 04:59:59;;;;;;;5.97;3.93;;;15.40;93.20;;;;;;5068293;28;20060;-48
2023/07/19 05:02:25;;;;;;;6.72;4.25;;;15.40;93.20;;;;;;5072886;28;20097;-48
2023/07/19 05:04:52;;;;;;;5.68;4.05;;;15.40;93.30;;;;;;5066364;28;20033;-49
2023/07/19 05:07:20;;;;;;;5.75;3.20;;;15.40;93.30;;;;;;5052534;28;20481;-49
2023/07/19 05:09:46;;;;;;;7.57;3.53;;;15.40;93.30;;;;;;5063573;28;20039;-47
2023/07/19 05:12:15;;;;;;;4.72;3.80;;;15.40;93.30;;;;;;5073089;28;20032;-48
2023/07/19 05:14:43;;;;;;;6.73;4.57;;;15.40;93.20;;;;;;5063424;28;20078;-48
2023/07/19 05:17:12;;;;;;;7.45;3.60;;;15.40;93.20;;;;;;5068715;28;20283;-47
2023/07/19 05:19:39;;;;;;;5.25;3.83;;;15.40;93.30;;;;;;5071136;28;20024;-48
2023/07/19 05:22:06;;;;;;;7.60;4.30;;;15.40;93.30;;;;;;5066517;28;20041;-48
2023/07/19 05:24:33;;;;;;;5.35;3.78;;;15.40;93.30;;;;;;5070997;28;20036;-48
2023/07/19 05:27:00;;;;;;;6.68;4.47;;;15.30;93.30;;;;;;5060409;28;20055;-47
2023/07/19 05:29:26;;;;;;;3.88;2.63;;;15.30;93.40;;;;;;5053565;28;20347;-47
2023/07/19 05:31:53;;;;;;;6.30;3.53;;;15.40;93.40;;;;;;5072895;28;20112;-48
2023/07/19 05:34:21;;;;;;;5.43;3.20;;;15.30;93.40;;;;;;5059426;28;20025;-46
2023/07/19 05:36:48;;;;;;;5.45;3.13;;;15.40;93.40;;;;;;5068601;28;20025;-48
2023/07/19 05:39:14;;;;;;;5.38;4.10;;;15.40;93.30;;;;;;5071201;28;20353;-47
2023/07/19 05:41:41;;;;;;;4.28;3.10;;;15.40;93.30;;;;;;5050829;28;20091;-46
2023/07/19 05:44:08;;;;;;;7.85;4.10;;;15.40;93.40;;;;;;5072680;28;20028;-47
2023/07/19 05:46:36;;;;;;;7.10;4.00;;;15.40;93.40;;;;;;5064949;28;20033;-46
2023/07/19 05:49:02;;;;;;;5.97;3.78;;;15.40;93.60;;;;;;5072788;28;20033;-48
2023/07/19 05:51:29;;;;;;;4.78;3.08;;;15.50;93.60;;;;;;5052012;28;20037;-46
2023/07/19 05:53:58;;;;;;;5.43;3.70;;;15.50;93.50;;;;;;5053107;28;20043;-46
2023/07/19 05:56:25;;;;;;;6.97;3.58;;;15.50;93.60;;;;;;5045246;28;20029;-47
2023/07/19 05:58:54;;;;;;;4.57;3.25;;;15.60;93.60;;;;;;5056263;28;20025;-46
2023/07/19 06:01:24;;;;;;;6.93;2.95;;;15.70;93.50;;;;;;5059202;28;20481;-45
2023/07/19 06:03:51;;;;;;;6.97;3.08;;;15.80;93.50;;;;;;5069787;28;20121;-47
2023/07/19 06:06:19;;;;;;;7.75;3.58;;;15.80;93.30;;;;;;5064684;28;20040;-47
2023/07/19 06:08:45;;;;;;;4.07;2.75;;;15.80;93.10;;;;;;5053540;28;20056;-47
2023/07/19 06:11:11;;;;;;;6.38;2.85;;;15.90;93.20;;;;;;5072032;28;20041;-46
2023/07/19 06:13:38;;;;;;;5.13;3.20;;;16.00;93.20;;;;;;5052705;28;20032;-46
2023/07/19 06:16:05;;;;;;;3.63;2.80;;;16.20;93.10;;;;;;5059723;28;20355;-47
2023/07/19 06:18:32;;;;;;;6.15;3.78;;;16.40;93.20;;;;;;5053489;28;20501;-47
2023/07/19 06:20:57;;;;;;;8.75;2.97;;;16.40;92.60;;;;;;5069605;28;20068;-49
2023/07/19 06:23:25;;;;;;;3.63;1.95;;;16.30;91.50;;;;;;5064759;28;20061;-47
2023/07/19 06:25:52;;;;;;;3.33;2.35;;;16.30;91.60;;;;;;5070880;28;20024;-47
2023/07/19 06:28:19;;;;;;;8.85;2.45;;;16.40;91.20;;;;;;5068282;28;20029;-50
2023/07/19 06:30:46;;;;;;;5.05;2.70;;;16.40;90.70;;;;;;5057488;28;20033;-47
2023/07/19 06:33:13;;;;;;;4.22;2.35;;;16.50;90.50;;;;;;5038669;28;20029;-48
2023/07/19 06:35:39;;;;;;;3.58;2.30;;;16.60;90.50;;;;;;5034999;28;20377;-47
2023/07/19 06:38:05;;;;;;;3.72;1.95;;;16.60;90.40;;;;;;5065869;28;20036;-51
2023/07/19 06:40:32;;;;;;;4.05;2.63;;;16.60;90.30;;;;;;5070757;28;20035;-47
2023/07/19 06:42:59;;;;;;;5.13;2.63;;;16.70;90.30;;;;;;5070616;28;20430;-51
2023/07/19 06:45:29;;;;;;;4.90;2.63;;;16.50;88.90;;;;;;5060041;28;20044;-47
2023/07/19 06:47:55;;;;;;;4.03;1.80;;;16.50;88.70;;;;;;5053786;28;20032;-48
2023/07/19 06:50:23;;;;;;;3.95;2.05;;;16.50;89.40;;;;;;5070097;28;20408;-47
2023/07/19 06:52:48;;;;;;;2.97;1.98;;;16.60;89.50;;;;;;5061826;28;20087;-48
2023/07/19 06:55:14;;;;;;;3.90;1.70;;;16.80;89.50;;;;;;5052079;28;20021;-47
2023/07/19 06:57:41;;;;;;;4.55;2.10;;;16.90;89.40;;;;;;5070487;28;20044;-50
2023/07/19 07:00:08;;;;;;;6.68;2.45;;;17.00;88.80;;;;;;5063626;28;20021;-48
2023/07/19 07:02:34;;;;;;;2.97;1.90;;;17.00;88.20;;;;;;5068176;28;20127;-49
2023/07/19 07:05:01;;;;;;;4.35;2.58;;;17.00;88.10;;;;;;5055586;28;20059;-53
2023/07/19 07:07:28;;;;;;;4.03;1.90;;;17.00;87.80;;;;;;5069868;28;20365;-51
2023/07/19 07:09:54;;;;;;;3.10;1.85;;;16.90;88.00;;;;;;5069159;28;20106;-51
2023/07/19 07:12:21;;;;;;;5.78;2.05;;;16.90;87.20;;;;;;5053178;28;20047;-51
2023/07/19 07:14:50;;;;;;;5.45;2.25;;;16.90;87.60;;;;;;5069138;28;20362;-51
2023/07/19 07:17:17;;;;;;;3.63;1.83;;;16.70;87.00;;;;;;5055047;28;20032;-50
2023/07/19 07:19:45;;;;;;;2.72;1.50;;;16.60;87.50;;;;;;5069685;28;20759;-49
2023/07/19 07:22:11;;;;;;;4.18;1.83;;;16.70;87.90;;;;;;5070927;28;20090;-49
2023/07/19 07:24:40;;;;;;;3.85;2.13;;;16.90;88.70;;;;;;5072359;28;20450;-51
2023/07/19 07:27:06;;;;;;;4.72;1.60;;;17.20;89.00;;;;;;5054786;28;20506;-49
2023/07/19 07:29:33;;;;;;;2.30;1.40;;;17.40;86.90;;;;;;5037024;28;20028;-50
2023/07/19 07:32:00;;;;;;;4.38;1.50;;;17.50;87.00;;;;;;5069382;28;20024;-50
2023/07/19 07:34:27;;;;;;;2.58;1.20;;;17.70;86.50;;;;;;5069685;28;20029;-53
2023/07/19 07:36:54;;;;;;;6.45;1.80;;;17.70;85.80;;;;;;5066047;28;20028;-51
2023/07/19 07:39:21;;;;;;;5.55;1.30;;;17.70;84.50;;;;;;5057559;28;20028;-55
2023/07/19 07:41:48;;;;;;;2.67;1.40;;;17.90;85.10;;;;;;5056617;28;20031;-54
2023/07/19 07:44:15;;;;;;;3.33;1.13;;;18.20;85.10;;;;;;5061079;28;20458;-52
2023/07/19 07:46:44;;;;;;;4.93;1.60;;;18.30;84.40;;;;;;5067891;28;20491;-52
2023/07/19 07:49:11;;;;;;;5.00;1.40;;;18.30;83.40;;;;;;5072396;28;20032;-51
2023/07/19 07:51:38;;;;;;;4.32;1.60;;;18.30;82.90;;;;;;5072109;28;20024;-54
2023/07/19 07:54:06;;;;;;;2.67;1.10;;;18.30;82.50;;;;;;5072979;28;20048;-56
2023/07/19 07:56:33;;;;;;;6.15;1.40;;;18.30;81.30;;;;;;5055578;28;20090;-57
2023/07/19 07:59:01;;;;;;;4.03;1.60;;;18.30;81.50;;;;;;5064452;28;20031;-56
2023/07/19 08:01:28;;;;;;;4.25;1.45;;;18.40;81.30;;;;;;5067660;28;20031;-53
2023/07/19 08:03:54;;;;;;;4.10;1.38;;;18.50;79.70;;;;;;5071068;28;20116;-56
2023/07/19 08:06:23;;;;;;;5.88;1.63;;;18.60;79.80;;;;;;5073534;28;20044;-55
2023/07/19 08:08:50;;;;;;;2.70;1.47;;;18.90;79.30;;;;;;5069843;28;20036;-53
2023/07/19 08:11:17;;;;;;;2.97;1.65;;;19.40;79.00;;;;;;5071259;28;20043;-58
2023/07/19 08:13:45;;;;;;;2.75;1.55;;;19.80;77.20;;;;;;5063758;28;20105;-56
2023/07/19 08:16:12;;;;;;;6.32;2.70;;;20.10;77.00;;;;;;5065803;28;20535;-58
2023/07/19 08:18:39;;;;;;;6.63;2.85;;;20.20;76.00;;;;;;5072806;28;20029;-58
2023/07/19 08:21:07;;;;;;;3.83;2.53;;;20.40;75.40;;;;;;5043982;28;20050;-55
2023/07/19 08:23:33;;;;;;;4.38;2.97;;;20.40;74.60;;;;;;5039502;28;20039;-56
2023/07/19 08:26:02;;;;;;;3.90;2.38;;;20.00;74.30;;;;;;5053412;28;20044;-57
2023/07/19 08:28:29;;;;;;;4.22;2.80;;;19.70;75.90;;;;;;5050007;28;21029;-58
2023/07/19 08:30:56;;;;;;;6.20;3.13;;;19.70;76.70;;;;;;5040481;28;20453;-57
2023/07/19 08:33:24;;;;;;;5.68;3.58;;;19.90;78.10;;;;;;5036571;28;20051;-58
2023/07/19 08:35:50;;;;;;;7.55;4.00;;;20.10;76.80;;;;;;5052054;28;20033;-57
2023/07/19 08:38:18;;;;;;;6.75;3.90;;;20.10;76.30;;;;;;5048085;28;20029;-56
2023/07/19 08:41:08;;;;;;;7.65;3.10;;;20.20;77.40;;;;;;5045775;28;20063;-56
2023/07/19 08:43:36;;;;;;;6.18;3.75;;;20.20;77.10;;;;;;5052191;28;20040;-53
2023/07/19 08:46:03;;;;;;;4.93;3.72;;;20.00;77.70;;;;;;5049599;28;20442;-57
2023/07/19 08:48:33;;;;;;;6.85;3.60;;;20.00;77.30;;;;;;5035677;28;20033;-53
2023/07/19 08:51:01;;;;;;;10.30;4.68;;;20.00;77.80;;;;;;5050220;28;20021;-51
2023/07/19 08:53:30;;;;;;;5.65;3.40;;;19.90;77.00;;;;;;5046307;28;20139;-56
2023/07/19 08:55:57;;;;;;;4.33;3.23;;;20.10;77.40;;;;;;5051786;28;20033;-58
2023/07/19 08:58:28;;;;;;;4.80;3.45;;;20.30;78.30;;;;;;5053716;28;20262;-57
2023/07/19 09:00:55;;;;;;;8.20;4.53;;;20.50;77.10;;;;;;5043944;28;20027;-53
2023/07/19 09:03:21;;;;;;;5.95;4.03;;;20.60;75.90;;;;;;5050843;28;20025;-55
2023/07/19 09:05:52;;;;;;;7.60;4.18;;;20.70;74.40;;;;;;5052056;28;20064;-53
2023/07/19 09:08:19;;;;;;;5.90;3.40;;;20.60;75.00;;;;;;5030604;28;20021;-56
2023/07/19 09:10:46;;;;;;;6.70;3.92;;;20.30;75.20;;;;;;5035650;28;20035;-54
2023/07/19 09:13:22;;;;;;;4.85;3.72;;;20.70;75.80;;;;;;5049830;28;20067;-54
2023/07/19 09:15:49;;;;;;;5.80;3.38;;;20.70;74.60;;;;;;5046918;28;20029;-55
2023/07/19 09:18:20;;;;;;;6.13;3.20;;;20.40;76.50;;;;;;5052358;28;20024;-57
2023/07/19 09:20:47;;;;;;;7.20;4.53;;;20.30;76.80;;;;;;5057616;28;20041;-55
2023/07/19 09:23:16;;;;;;;5.10;4.32;;;20.10;76.50;;;;;;5053017;28;20029;-51
2023/07/19 09:26:03;;;;;;;5.78;3.63;;;20.00;76.70;;;;;;5052854;28;20135;-56
2023/07/19 09:28:34;;;;;;;4.53;3.58;;;19.70;77.90;;;;;;5053015;28;20037;-53
2023/07/19 09:31:03;;;;;;;5.63;4.28;;;19.50;78.60;;;;;;5064640;28;20048;-55
2023/07/19 09:33:32;;;;;;;6.57;4.97;;;19.30;78.50;;;;;;5052604;28;20052;-54
2023/07/19 09:35:59;;;;;;;5.15;4.28;;;19.00;78.70;;;;;;5051870;28;20461;-54
2023/07/19 09:38:26;;;;;;;6.25;3.35;;;18.80;80.00;;;;;;5061964;28;20032;-52
2023/07/19 09:40:54;;;;;;;10.27;5.57;;;18.60;80.90;;;;;;5053426;28;20025;-46
2023/07/19 09:43:21;;;;;;;17.40;5.55;;;18.40;81.40;;;;;;5052728;28;20028;-48
2023/07/19 09:45:50;;;;;;;10.65;4.38;;;18.30;82.30;;;;;;5050125;28;20082;-46
2023/07/19 09:48:18;;;;;;;5.05;3.78;;;18.20;83.30;;;;;;5048631;28;20051;-45
2023/07/19 09:50:49;;;;;;;6.70;4.97;;;18.30;84.00;;;;;;5072010;28;20388;-46
2023/07/19 09:53:16;;;;;;;7.30;4.20;;;18.30;84.40;;;;;;5067534;28;20058;-46
2023/07/19 09:55:46;;;;;;;5.85;4.18;;;18.30;84.90;;;;;;5054138;28;20446;-47
2023/07/19 09:58:18;;;;;;;5.38;3.70;;;18.40;84.70;;;;;;5058146;28;20154;-46
2023/07/19 10:00:45;;;;;;;6.68;5.47;;;18.40;85.40;;;;;;5067417;28;20746;-46
2023/07/19 10:03:18;;;;;;;8.45;5.18;;;18.40;85.50;;;;;;5068330;28;20333;-46
2023/07/19 10:05:44;;;;;;;7.60;4.63;;;18.60;85.20;;;;;;5069305;28;20122;-46
2023/07/19 10:08:11;;;;;;;7.47;4.53;;;18.80;85.20;;;;;;5072264;28;20021;-46
2023/07/19 10:10:57;;;;;;;6.63;4.05;;;18.80;85.10;;;;;;5055228;28;20032;-46
2023/07/19 10:13:53;;;;;;;8.32;4.82;;;18.80;84.30;;;;;;5061650;28;20487;-46
2023/07/19 10:16:33;;;;;;;6.07;5.47;;;18.60;84.10;;;;;;5058255;28;20060;-48
2023/07/19 10:19:12;;;;;;;8.25;4.75;;;18.30;84.90;;;;;;5067920;28;20052;-46
2023/07/19 10:22:04;;;;;;;5.88;4.43;;;18.00;85.10;;;;;;5061138;28;20078;-45
2023/07/19 10:24:37;;;;;;;9.68;4.72;;;17.90;85.70;;;;;;5052101;28;20033;-45
2023/07/19 10:27:42;;;;;;;5.65;4.10;;;18.10;86.20;;;;;;5034436;28;20033;-46
2023/07/19 10:30:09;;;;;;;7.78;5.57;;;18.60;87.60;;;;;;5065387;28;20049;-46
2023/07/19 10:32:36;;;;;;;6.40;3.83;;;19.50;87.10;;;;;;5069137;28;20043;-46
2023/07/19 10:35:03;;;;;;;6.47;3.58;;;19.60;83.60;;;;;;5071040;28;20035;-46
2023/07/19 10:37:31;;;;;;;5.82;3.25;;;19.60;82.50;;;;;;5070183;28;20465;-47
2023/07/19 10:40:00;;;;;;;4.95;2.00;;;19.90;83.60;;;;;;5072323;28;20115;-49
2023/07/19 10:42:27;;;;;;;2.60;1.50;;;20.00;79.50;;;;;;5058944;28;20174;-49
2023/07/19 10:44:56;;;;;;;4.13;1.38;;;19.80;77.90;;;;;;5075457;28;20119;-49
2023/07/19 10:47:24;;;;;;;3.08;1.48;;;19.60;77.40;;;;;;5074205;28;20457;-51
2023/07/19 10:49:52;;;;;;;3.47;1.48;;;19.50;78.50;;;;;;5063999;28;20040;-55
2023/07/19 10:52:21;;;;;;;4.40;1.38;;;19.50;78.10;;;;;;5055690;28;20104;-55
2023/07/19 10:54:55;;;;;;;2.38;1.15;;;19.40;77.50;;;;;;5063552;28;20434;-53
2023/07/19 10:57:22;;;;;;;4.53;1.25;;;19.70;77.70;;;;;;5072791;28;20024;-56
2023/07/19 10:59:51;;;;;;;3.20;1.20;;;19.90;76.40;;;;;;5071962;28;20032;-52
2023/07/19 11:02:20;;;;;;;5.60;1.27;;;20.20;75.10;;;;;;5062687;28;20114;-50
2023/07/19 11:04:48;;;;;;;3.42;0.98;;;20.20;74.70;;;;;;5038893;28;20362;-57
2023/07/19 11:07:15;;;;;;;3.28;1.52;;;20.00;74.90;;;;;;5055536;28;20827;-54
2023/07/19 11:10:01;;;;;;;5.05;2.13;;;20.30;74.70;;;;;;5057793;28;20438;-53
2023/07/19 11:12:30;;;;;;;4.30;1.20;;;20.40;72.00;;;;;;5057254;28;20456;-54
2023/07/19 11:15:00;;;;;;;3.00;0.85;;;20.20;72.80;;;;;;5075647;28;20365;-58
2023/07/19 11:17:29;;;;;;;1.90;0.80;;;20.10;72.50;;;;;;5056376;28;20867;-55
2023/07/19 11:19:55;;;;;;;3.42;0.93;;;20.10;72.30;;;;;;5070635;28;20039;-56
2023/07/19 11:22:24;;;;;;;4.43;1.58;;;20.60;72.50;;;;;;5037636;28;20053;-50
2023/07/19 11:24:55;;;;;;;2.72;0.95;;;21.10;69.90;;;;;;5053795;28;20044;-53
2023/07/19 11:27:41;;;;;;;2.13;0.68;;;21.30;67.70;;;;;;5054747;28;20029;-53
2023/07/19 11:30:08;;;;;;;4.95;0.90;;;21.40;68.30;;;;;;5040225;28;20120;-51
2023/07/19 11:32:35;;;;;;;2.47;0.73;;;21.30;66.90;;;;;;5053091;28;20529;-55
2023/07/19 11:35:02;;;;;;;2.55;0.80;;;21.20;68.00;;;;;;5054047;28;20024;-56
2023/07/19 11:37:36;;;;;;;2.97;0.85;;;21.00;68.70;;;;;;5051796;28;20103;-53
2023/07/19 11:40:06;;;;;;;2.45;1.00;;;20.90;68.50;;;;;;5054226;28;20025;-52
2023/07/19 11:42:39;;;;;;;2.28;1.13;;;21.20;66.80;;;;;;5036601;28;20052;-50
2023/07/19 11:45:21;;;;;;;2.13;0.75;;;21.20;65.30;;;;;;5054616;28;20021;-53
2023/07/19 11:47:54;;;;;;;4.40;0.90;;;21.20;64.30;;;;;;5045999;28;20359;-52
2023/07/19 11:50:22;;;;;;;2.65;0.70;;;21.50;65.60;;;;;;5034415;28;20115;-51
2023/07/19 11:53:00;;;;;;;1.02;0.50;;;21.70;64.50;;;;;;5053537;28;20032;-55
2023/07/19 11:55:30;;;;;;;2.47;0.77;;;22.00;63.70;;;;;;5042175;28;20041;-49
2023/07/19 11:58:02;;;;;;;2.58;0.57;;;22.30;62.90;;;;;;5054390;28;20369;-53
2023/07/19 12:00:31;;;;;;;2.65;0.38;;;22.40;59.40;;;;;;5036354;28;20029;-55
2023/07/19 12:02:58;;;;;;;1.23;0.43;;;22.50;60.90;;;;;;5042968;28;20304;-53
2023/07/19 12:05:26;;;;;;;0.75;0.30;;;22.80;63.60;;;;;;5053313;28;20055;-51
2023/07/19 12:07:54;;;;;;;1.98;0.40;;;22.80;59.70;;;;;;5051178;28;20037;-52
2023/07/19 12:10:22;;;;;;;0.55;0.20;;;23.00;62.50;;;;;;5052414;28;20334;-55
2023/07/19 12:12:49;;;;;;;0.80;0.30;;;22.90;59.50;;;;;;5047798;28;20465;-51
2023/07/19 12:15:16;;;;;;;2.53;0.52;;;22.30;61.10;;;;;;5050874;28;20517;-52
2023/07/19 12:17:44;;;;;;;5.28;1.10;;;21.80;65.70;;;;;;5043771;28;20029;-53
2023/07/19 12:20:10;;;;;;;1.85;0.73;;;21.70;67.90;;;;;;5049717;28;20091;-52
2023/07/19 12:22:40;;;;;;;1.50;0.65;;;21.40;68.00;;;;;;5067171;28;20110;-55
2023/07/19 12:25:07;;;;;;;4.88;0.85;;;21.40;69.00;;;;;;5072968;28;20028;-49
2023/07/19 12:27:34;;;;;;;1.48;0.60;;;21.60;68.20;;;;;;5070675;28;20024;-50
2023/07/19 12:30:04;;;;;;;2.65;0.77;;;21.60;64.30;;;;;;5054373;28;20032;-51
2023/07/19 12:32:32;;;;;;;;;;;21.40;66.30;;;;;;5053682;28;20409;-56
2023/07/19 12:34:59;;;;;;;5.25;1.58;;;21.30;68.20;;;;;;5073497;28;19920;-55
2023/07/19 12:37:30;;;;;;;2.60;1.00;;;21.20;66.80;;;;;;5070667;28;20024;-57
2023/07/19 12:39:57;;;;;;;3.40;1.02;;;21.10;69.30;;;;;;5070779;28;20432;-52
2023/07/19 12:42:25;;;;;;;1.48;0.77;;;21.50;69.50;;;;;;5050900;28;20512;-49
2023/07/19 12:44:52;;;;;;;2.58;1.15;;;21.60;69.30;;;;;;5035329;28;20116;-52
2023/07/19 12:47:18;;;;;;;2.10;0.73;;;21.70;68.40;;;;;;5060891;28;20660;-55
2023/07/19 12:49:45;;;;;;;1.38;0.73;;;21.50;67.30;;;;;;5063207;28;20037;-51